SWA2019 KSAN-KSTS
Flight info
| Callsign | SWA2019 |
|---|---|
| Flight time | N/A |
| Altitude | 38000 |
| Route | PADRZ2 OROSZ COREZ RGOOD VNYRD1 |
| Aircraft | B738/M-SDE2E3FGHIRWXY/LB1 |
Departure
| Time | 2026-05-05 04:34 |
|---|---|
| Airport | San Diego International Airport (KSAN) |
Arrival
| Time | N/A |
|---|---|
| Airport | Charles M. Schulz Sonoma County Airport (KSTS) |
| Time | Latitude | Longitude | Altitude | Speed | Heading |
|---|---|---|---|---|---|
| 2026-05-05 03:58 | 32.73233 | -117.19591 | 22 ft | 0 kts | 308° |
| 2026-05-05 04:18 | 32.73228 | -117.19582 | 22 ft | 2 kts | 308° |
| 2026-05-05 04:18 | 32.73218 | -117.19569 | 22 ft | 2 kts | 302° |
| 2026-05-05 04:19 | 32.73212 | -117.19553 | 22 ft | 2 kts | 287° |
| 2026-05-05 04:19 | 32.73208 | -117.19535 | 22 ft | 2 kts | 287° |
| 2026-05-05 04:19 | 32.73204 | -117.19518 | 22 ft | 2 kts | 287° |
| 2026-05-05 04:19 | 32.73199 | -117.19501 | 22 ft | 2 kts | 287° |
| 2026-05-05 04:20 | 32.73197 | -117.19492 | 22 ft | 0 kts | 287° |
| 2026-05-05 04:20 | 32.73208 | -117.19505 | 22 ft | 2 kts | 335° |
| 2026-05-05 04:20 | 32.73226 | -117.19502 | 22 ft | 2 kts | 35° |
| 2026-05-05 04:20 | 32.73245 | -117.19477 | 22 ft | 3 kts | 47° |
| 2026-05-05 04:21 | 32.73247 | -117.19474 | 22 ft | 0 kts | 47° |
| 2026-05-05 04:26 | 32.73248 | -117.19474 | 22 ft | 0 kts | 46° |
| 2026-05-05 04:26 | 32.73250 | -117.19472 | 22 ft | 0 kts | 38° |
| 2026-05-05 04:27 | 32.73259 | -117.19464 | 22 ft | 4 kts | 34° |
| 2026-05-05 04:27 | 32.73286 | -117.19444 | 22 ft | 5 kts | 30° |
| 2026-05-05 04:27 | 32.73319 | -117.19422 | 22 ft | 5 kts | 36° |
| 2026-05-05 04:27 | 32.73339 | -117.19388 | 22 ft | 4 kts | 69° |
| 2026-05-05 04:28 | 32.73339 | -117.19325 | 23 ft | 11 kts | 104° |
| 2026-05-05 04:28 | 32.73313 | -117.19218 | 23 ft | 13 kts | 105° |
| 2026-05-05 04:28 | 32.73287 | -117.19110 | 23 ft | 13 kts | 106° |
| 2026-05-05 04:28 | 32.73262 | -117.19006 | 23 ft | 12 kts | 106° |
| 2026-05-05 04:29 | 32.73238 | -117.18906 | 23 ft | 12 kts | 106° |
| 2026-05-05 04:29 | 32.73214 | -117.18806 | 23 ft | 13 kts | 105° |
| 2026-05-05 04:29 | 32.73180 | -117.18671 | 23 ft | 20 kts | 107° |
| 2026-05-05 04:29 | 32.73143 | -117.18514 | 23 ft | 19 kts | 106° |
| 2026-05-05 04:30 | 32.73107 | -117.18365 | 23 ft | 18 kts | 107° |
| 2026-05-05 04:30 | 32.73072 | -117.18221 | 23 ft | 17 kts | 106° |
| 2026-05-05 04:30 | 32.73037 | -117.18081 | 23 ft | 17 kts | 106° |
| 2026-05-05 04:30 | 32.73005 | -117.17946 | 23 ft | 16 kts | 106° |
| 2026-05-05 04:31 | 32.72974 | -117.17818 | 24 ft | 15 kts | 107° |
| 2026-05-05 04:31 | 32.72952 | -117.17718 | 24 ft | 9 kts | 97° |
| 2026-05-05 04:31 | 32.72953 | -117.17679 | 24 ft | 0 kts | 81° |
| 2026-05-05 04:32 | 32.72957 | -117.17664 | 25 ft | 3 kts | 73° |
| 2026-05-05 04:32 | 32.72982 | -117.17616 | 25 ft | 8 kts | 37° |
| 2026-05-05 04:32 | 32.73029 | -117.17628 | 25 ft | 7 kts | 303° |
| 2026-05-05 04:32 | 32.73043 | -117.17666 | 25 ft | 0 kts | 288° |
| 2026-05-05 04:33 | 32.73052 | -117.17709 | 25 ft | 16 kts | 284° |
| 2026-05-05 04:33 | 32.73149 | -117.18117 | 23 ft | 85 kts | 286° |
| 2026-05-05 04:34 | 32.73373 | -117.19034 | 23 ft | 142 kts | 286° |
| 2026-05-05 04:34 | 32.73684 | -117.20297 | 223 ft | 168 kts | 287° |
| 2026-05-05 04:34 | 32.74080 | -117.21560 | 881 ft | 166 kts | 294° |
| 2026-05-05 04:34 | 32.74688 | -117.22737 | 1476 ft | 171 kts | 307° |
| 2026-05-05 04:35 | 32.75471 | -117.23878 | 1941 ft | 185 kts | 307° |
| 2026-05-05 04:35 | 32.76247 | -117.25133 | 2467 ft | 196 kts | 303° |
| 2026-05-05 04:35 | 32.77063 | -117.26623 | 2708 ft | 227 kts | 301° |
| 2026-05-05 04:35 | 32.77900 | -117.28220 | 3514 ft | 229 kts | 301° |
| 2026-05-05 04:36 | 32.78824 | -117.29894 | 3673 ft | 262 kts | 303° |
| 2026-05-05 04:36 | 32.79884 | -117.31725 | 4596 ft | 260 kts | 304° |
| 2026-05-05 04:36 | 32.80912 | -117.33386 | 5598 ft | 255 kts | 305° |
| 2026-05-05 04:36 | 32.81987 | -117.35028 | 6474 ft | 254 kts | 306° |
| 2026-05-05 04:37 | 32.83081 | -117.36691 | 7250 ft | 258 kts | 305° |
| 2026-05-05 04:37 | 32.84184 | -117.38384 | 8027 ft | 260 kts | 305° |
| 2026-05-05 04:37 | 32.85305 | -117.40116 | 8781 ft | 264 kts | 304° |
| 2026-05-05 04:37 | 32.86436 | -117.41870 | 9506 ft | 268 kts | 304° |
| 2026-05-05 04:38 | 32.87565 | -117.43624 | 10252 ft | 270 kts | 304° |
| 2026-05-05 04:38 | 32.88733 | -117.45440 | 10972 ft | 274 kts | 304° |
| 2026-05-05 04:38 | 32.89895 | -117.47246 | 11653 ft | 279 kts | 304° |
| 2026-05-05 04:38 | 32.91083 | -117.49092 | 12423 ft | 281 kts | 304° |
| 2026-05-05 04:39 | 32.92281 | -117.50958 | 13152 ft | 285 kts | 304° |
| 2026-05-05 04:39 | 32.93489 | -117.52843 | 13728 ft | 295 kts | 304° |
| 2026-05-05 04:39 | 32.94770 | -117.54847 | 14185 ft | 309 kts | 304° |
| 2026-05-05 04:39 | 32.96096 | -117.56921 | 14615 ft | 323 kts | 304° |
| 2026-05-05 04:40 | 32.97504 | -117.59122 | 15040 ft | 338 kts | 304° |
| 2026-05-05 04:40 | 32.98964 | -117.61404 | 15467 ft | 352 kts | 304° |
| 2026-05-05 04:40 | 33.00468 | -117.63751 | 16100 ft | 359 kts | 304° |
| 2026-05-05 04:40 | 33.01992 | -117.66127 | 16802 ft | 364 kts | 303° |
| 2026-05-05 04:41 | 33.03547 | -117.68552 | 17527 ft | 368 kts | 303° |
| 2026-05-05 04:41 | 33.05141 | -117.70991 | 18223 ft | 373 kts | 305° |
| 2026-05-05 04:41 | 33.06851 | -117.73312 | 18975 ft | 376 kts | 309° |
| 2026-05-05 04:41 | 33.08746 | -117.75504 | 19656 ft | 382 kts | 312° |
| 2026-05-05 04:42 | 33.10715 | -117.77572 | 20355 ft | 385 kts | 314° |
| 2026-05-05 04:42 | 33.12808 | -117.79679 | 21034 ft | 388 kts | 314° |
| 2026-05-05 04:42 | 33.14916 | -117.81776 | 21663 ft | 392 kts | 314° |
| 2026-05-05 04:42 | 33.17004 | -117.83859 | 22293 ft | 394 kts | 314° |
| 2026-05-05 04:43 | 33.19133 | -117.85993 | 22820 ft | 400 kts | 313° |
| 2026-05-05 04:43 | 33.21305 | -117.88161 | 23445 ft | 402 kts | 314° |
| 2026-05-05 04:43 | 33.23488 | -117.90291 | 23944 ft | 406 kts | 314° |
| 2026-05-05 04:43 | 33.25677 | -117.92402 | 24546 ft | 407 kts | 313° |
| 2026-05-05 04:44 | 33.27916 | -117.94569 | 24861 ft | 415 kts | 313° |
| 2026-05-05 04:44 | 33.30175 | -117.96780 | 25458 ft | 413 kts | 312° |
| 2026-05-05 04:44 | 33.32416 | -117.98962 | 25796 ft | 420 kts | 312° |
| 2026-05-05 04:44 | 33.34705 | -118.01189 | 26307 ft | 422 kts | 311° |
| 2026-05-05 04:45 | 33.36998 | -118.03423 | 26597 ft | 428 kts | 310° |
| 2026-05-05 04:45 | 33.39298 | -118.05673 | 27221 ft | 426 kts | 310° |
| 2026-05-05 04:45 | 33.41620 | -118.07952 | 27367 ft | 437 kts | 310° |
| 2026-05-05 04:45 | 33.43978 | -118.10278 | 27945 ft | 434 kts | 309° |
| 2026-05-05 04:46 | 33.46328 | -118.12570 | 28523 ft | 433 kts | 309° |
| 2026-05-05 04:46 | 33.48654 | -118.14848 | 28753 ft | 440 kts | 309° |
| 2026-05-05 04:46 | 33.51025 | -118.17198 | 29162 ft | 439 kts | 308° |
| 2026-05-05 04:46 | 33.53276 | -118.19389 | 30779 ft | 400 kts | 307° |
| 2026-05-05 04:47 | 33.55353 | -118.21358 | 31776 ft | 377 kts | 306° |
| 2026-05-05 04:47 | 33.59637 | -118.25039 | 31830 ft | 392 kts | 315° |
| 2026-05-05 04:47 | 33.62102 | -118.26622 | 31925 ft | 404 kts | 320° |
| 2026-05-05 04:48 | 33.64636 | -118.27987 | 31946 ft | 393 kts | 322° |
| 2026-05-05 04:48 | 33.69637 | -118.30508 | 32041 ft | 396 kts | 323° |
| 2026-05-05 04:49 | 33.74754 | -118.33202 | 32215 ft | 409 kts | 322° |
| 2026-05-05 04:49 | 33.77374 | -118.34603 | 32368 ft | 417 kts | 323° |
| 2026-05-05 04:49 | 33.79479 | -118.35687 | 32411 ft | 417 kts | 324° |
| 2026-05-05 04:50 | 33.83100 | -118.37482 | 32452 ft | 420 kts | 324° |
| 2026-05-05 04:50 | 33.85812 | -118.38826 | 32562 ft | 426 kts | 325° |
| 2026-05-05 04:50 | 33.88547 | -118.40189 | 32641 ft | 433 kts | 325° |
| 2026-05-05 04:51 | 33.94203 | -118.43023 | 32823 ft | 446 kts | 326° |